sensor_id;sensor_type;location;lat;lon;timestamp;P1;durP1;ratioP1;P2;durP2;ratioP2
25715;SDS011;13573;50.936;4.328;2022-08-18T00:02:21;112.90;;;64.37;;
25715;SDS011;13573;50.936;4.328;2022-08-18T00:04:50;111.93;;;65.20;;
25715;SDS011;13573;50.936;4.328;2022-08-18T00:07:21;132.93;;;68.73;;
25715;SDS011;13573;50.936;4.328;2022-08-18T00:09:50;116.33;;;65.17;;
25715;SDS011;13573;50.936;4.328;2022-08-18T00:12:20;122.07;;;66.67;;
25715;SDS011;13573;50.936;4.328;2022-08-18T00:14:50;100.87;;;61.40;;
25715;SDS011;13573;50.936;4.328;2022-08-18T00:17:17;116.23;;;64.90;;
25715;SDS011;13573;50.936;4.328;2022-08-18T00:19:45;119.67;;;67.20;;
25715;SDS011;13573;50.936;4.328;2022-08-18T00:22:12;94.63;;;60.33;;
25715;SDS011;13573;50.936;4.328;2022-08-18T00:24:42;95.77;;;59.43;;
25715;SDS011;13573;50.936;4.328;2022-08-18T00:27:10;88.37;;;57.13;;
25715;SDS011;13573;50.936;4.328;2022-08-18T00:29:36;82.07;;;55.97;;
25715;SDS011;13573;50.936;4.328;2022-08-18T00:34:40;101.07;;;61.03;;
25715;SDS011;13573;50.936;4.328;2022-08-18T00:37:07;109.10;;;59.70;;
25715;SDS011;13573;50.936;4.328;2022-08-18T00:39:33;118.10;;;64.17;;
25715;SDS011;13573;50.936;4.328;2022-08-18T00:44:40;127.73;;;66.70;;
25715;SDS011;13573;50.936;4.328;2022-08-18T00:47:06;112.80;;;62.63;;
25715;SDS011;13573;50.936;4.328;2022-08-18T00:49:35;136.83;;;69.13;;
25715;SDS011;13573;50.936;4.328;2022-08-18T00:52:03;122.90;;;66.37;;
25715;SDS011;13573;50.936;4.328;2022-08-18T00:54:31;122.83;;;65.87;;
25715;SDS011;13573;50.936;4.328;2022-08-18T00:57:01;114.30;;;61.50;;
25715;SDS011;13573;50.936;4.328;2022-08-18T00:59:43;128.83;;;65.37;;
25715;SDS011;13573;50.936;4.328;2022-08-18T01:02:19;88.93;;;55.40;;
25715;SDS011;13573;50.936;4.328;2022-08-18T01:04:51;123.00;;;65.00;;
25715;SDS011;13573;50.936;4.328;2022-08-18T01:07:37;122.30;;;63.07;;
25715;SDS011;13573;50.936;4.328;2022-08-18T01:10:07;125.30;;;65.10;;
25715;SDS011;13573;50.936;4.328;2022-08-18T01:12:34;133.80;;;64.27;;
25715;SDS011;13573;50.936;4.328;2022-08-18T01:15:02;90.93;;;55.93;;
25715;SDS011;13573;50.936;4.328;2022-08-18T01:17:30;89.60;;;55.53;;
25715;SDS011;13573;50.936;4.328;2022-08-18T01:20:03;83.50;;;53.63;;
25715;SDS011;13573;50.936;4.328;2022-08-18T01:22:59;92.83;;;55.23;;
25715;SDS011;13573;50.936;4.328;2022-08-18T01:25:29;87.73;;;53.63;;
25715;SDS011;13573;50.936;4.328;2022-08-18T01:28:04;124.30;;;62.33;;
25715;SDS011;13573;50.936;4.328;2022-08-18T01:30:42;124.40;;;63.57;;
25715;SDS011;13573;50.936;4.328;2022-08-18T01:33:02;118.83;;;64.13;;
25715;SDS011;13573;50.936;4.328;2022-08-18T01:35:31;97.60;;;57.20;;
25715;SDS011;13573;50.936;4.328;2022-08-18T01:37:59;120.83;;;64.53;;
25715;SDS011;13573;50.936;4.328;2022-08-18T01:40:26;147.63;;;68.90;;
25715;SDS011;13573;50.936;4.328;2022-08-18T01:42:53;140.17;;;67.60;;
25715;SDS011;13573;50.936;4.328;2022-08-18T01:45:21;184.83;;;76.40;;
25715;SDS011;13573;50.936;4.328;2022-08-18T01:47:48;161.40;;;71.93;;
25715;SDS011;13573;50.936;4.328;2022-08-18T01:50:16;180.37;;;75.97;;
25715;SDS011;13573;50.936;4.328;2022-08-18T01:52:43;171.60;;;72.97;;
25715;SDS011;13573;50.936;4.328;2022-08-18T01:55:09;141.50;;;67.53;;
25715;SDS011;13573;50.936;4.328;2022-08-18T01:57:38;138.53;;;65.60;;
25715;SDS011;13573;50.936;4.328;2022-08-18T02:00:11;132.07;;;65.97;;
25715;SDS011;13573;50.936;4.328;2022-08-18T02:02:40;106.13;;;60.63;;
25715;SDS011;13573;50.936;4.328;2022-08-18T02:05:09;124.27;;;64.83;;
25715;SDS011;13573;50.936;4.328;2022-08-18T02:07:39;121.83;;;61.77;;
25715;SDS011;13573;50.936;4.328;2022-08-18T02:10:07;144.57;;;67.90;;
25715;SDS011;13573;50.936;4.328;2022-08-18T02:12:37;168.90;;;69.63;;
25715;SDS011;13573;50.936;4.328;2022-08-18T02:15:04;109.90;;;59.37;;
25715;SDS011;13573;50.936;4.328;2022-08-18T02:17:39;144.53;;;68.97;;
25715;SDS011;13573;50.936;4.328;2022-08-18T02:20:08;211.97;;;75.07;;
25715;SDS011;13573;50.936;4.328;2022-08-18T02:22:37;186.67;;;70.87;;
25715;SDS011;13573;50.936;4.328;2022-08-18T02:25:04;112.30;;;62.03;;
25715;SDS011;13573;50.936;4.328;2022-08-18T02:27:32;183.53;;;71.67;;
25715;SDS011;13573;50.936;4.328;2022-08-18T02:30:00;113.73;;;61.37;;
25715;SDS011;13573;50.936;4.328;2022-08-18T02:32:28;142.07;;;65.47;;
25715;SDS011;13573;50.936;4.328;2022-08-18T02:34:56;145.80;;;67.90;;
25715;SDS011;13573;50.936;4.328;2022-08-18T02:37:23;118.00;;;64.90;;
25715;SDS011;13573;50.936;4.328;2022-08-18T02:39:50;153.90;;;68.10;;
25715;SDS011;13573;50.936;4.328;2022-08-18T02:42:17;133.73;;;64.03;;
25715;SDS011;13573;50.936;4.328;2022-08-18T02:44:44;106.37;;;58.40;;
25715;SDS011;13573;50.936;4.328;2022-08-18T02:47:11;134.97;;;64.57;;
25715;SDS011;13573;50.936;4.328;2022-08-18T02:49:39;150.97;;;65.80;;
25715;SDS011;13573;50.936;4.328;2022-08-18T02:52:05;168.63;;;67.43;;
25715;SDS011;13573;50.936;4.328;2022-08-18T02:54:32;141.97;;;64.47;;
25715;SDS011;13573;50.936;4.328;2022-08-18T02:57:04;89.07;;;54.73;;
25715;SDS011;13573;50.936;4.328;2022-08-18T02:59:32;117.97;;;59.30;;
25715;SDS011;13573;50.936;4.328;2022-08-18T03:01:59;114.43;;;58.87;;
25715;SDS011;13573;50.936;4.328;2022-08-18T03:04:27;107.57;;;54.97;;
25715;SDS011;13573;50.936;4.328;2022-08-18T03:06:55;81.07;;;49.73;;
25715;SDS011;13573;50.936;4.328;2022-08-18T03:09:25;133.23;;;56.77;;
25715;SDS011;13573;50.936;4.328;2022-08-18T03:11:53;86.53;;;49.63;;
25715;SDS011;13573;50.936;4.328;2022-08-18T03:14:20;84.20;;;51.83;;
25715;SDS011;13573;50.936;4.328;2022-08-18T03:16:47;86.63;;;50.37;;
25715;SDS011;13573;50.936;4.328;2022-08-18T03:19:15;81.00;;;51.77;;
25715;SDS011;13573;50.936;4.328;2022-08-18T03:21:43;223.37;;;66.50;;
25715;SDS011;13573;50.936;4.328;2022-08-18T03:24:11;134.30;;;60.00;;
25715;SDS011;13573;50.936;4.328;2022-08-18T03:26:40;90.80;;;53.33;;
25715;SDS011;13573;50.936;4.328;2022-08-18T03:29:09;126.13;;;61.10;;
25715;SDS011;13573;50.936;4.328;2022-08-18T03:31:37;135.70;;;57.43;;
25715;SDS011;13573;50.936;4.328;2022-08-18T03:34:06;203.30;;;62.43;;
25715;SDS011;13573;50.936;4.328;2022-08-18T03:36:33;91.17;;;53.67;;
25715;SDS011;13573;50.936;4.328;2022-08-18T03:39:03;79.83;;;49.20;;
25715;SDS011;13573;50.936;4.328;2022-08-18T03:41:32;72.00;;;47.23;;
25715;SDS011;13573;50.936;4.328;2022-08-18T03:44:01;84.80;;;52.20;;
25715;SDS011;13573;50.936;4.328;2022-08-18T03:46:28;101.17;;;57.17;;
25715;SDS011;13573;50.936;4.328;2022-08-18T03:48:55;107.13;;;57.80;;
25715;SDS011;13573;50.936;4.328;2022-08-18T03:51:24;102.57;;;56.00;;
25715;SDS011;13573;50.936;4.328;2022-08-18T03:53:54;118.03;;;62.10;;
25715;SDS011;13573;50.936;4.328;2022-08-18T03:56:26;113.77;;;60.97;;
25715;SDS011;13573;50.936;4.328;2022-08-18T03:58:56;117.83;;;61.10;;
25715;SDS011;13573;50.936;4.328;2022-08-18T04:01:27;112.17;;;62.13;;
25715;SDS011;13573;50.936;4.328;2022-08-18T04:03:58;129.40;;;64.27;;
25715;SDS011;13573;50.936;4.328;2022-08-18T04:06:31;124.03;;;62.33;;
25715;SDS011;13573;50.936;4.328;2022-08-18T04:08:59;131.27;;;64.27;;
25715;SDS011;13573;50.936;4.328;2022-08-18T04:11:30;143.53;;;66.03;;
25715;SDS011;13573;50.936;4.328;2022-08-18T04:13:58;80.17;;;52.50;;
25715;SDS011;13573;50.936;4.328;2022-08-18T04:16:26;75.57;;;51.73;;
25715;SDS011;13573;50.936;4.328;2022-08-18T04:18:56;77.87;;;50.87;;
25715;SDS011;13573;50.936;4.328;2022-08-18T04:21:24;136.60;;;63.43;;
25715;SDS011;13573;50.936;4.328;2022-08-18T04:23:51;103.00;;;57.07;;
25715;SDS011;13573;50.936;4.328;2022-08-18T04:26:18;122.10;;;60.97;;
25715;SDS011;13573;50.936;4.328;2022-08-18T04:28:46;122.37;;;59.40;;
25715;SDS011;13573;50.936;4.328;2022-08-18T04:31:13;164.90;;;63.47;;
25715;SDS011;13573;50.936;4.328;2022-08-18T04:33:40;98.97;;;54.47;;
25715;SDS011;13573;50.936;4.328;2022-08-18T04:36:08;90.10;;;53.17;;
25715;SDS011;13573;50.936;4.328;2022-08-18T04:38:37;94.37;;;53.90;;
25715;SDS011;13573;50.936;4.328;2022-08-18T04:41:07;162.07;;;60.23;;
25715;SDS011;13573;50.936;4.328;2022-08-18T04:43:34;143.87;;;61.57;;
25715;SDS011;13573;50.936;4.328;2022-08-18T04:46:01;151.63;;;62.17;;
25715;SDS011;13573;50.936;4.328;2022-08-18T04:48:29;151.80;;;63.30;;
25715;SDS011;13573;50.936;4.328;2022-08-18T04:51:06;106.17;;;56.10;;
25715;SDS011;13573;50.936;4.328;2022-08-18T04:53:35;162.33;;;63.20;;
25715;SDS011;13573;50.936;4.328;2022-08-18T04:56:08;88.27;;;51.50;;
25715;SDS011;13573;50.936;4.328;2022-08-18T04:58:42;104.10;;;54.70;;
25715;SDS011;13573;50.936;4.328;2022-08-18T05:01:09;132.03;;;54.97;;
25715;SDS011;13573;50.936;4.328;2022-08-18T05:03:35;77.97;;;47.10;;
25715;SDS011;13573;50.936;4.328;2022-08-18T05:06:03;118.73;;;51.80;;
25715;SDS011;13573;50.936;4.328;2022-08-18T05:08:31;153.63;;;57.33;;
25715;SDS011;13573;50.936;4.328;2022-08-18T05:10:58;104.57;;;47.13;;
25715;SDS011;13573;50.936;4.328;2022-08-18T05:13:25;202.23;;;59.90;;
25715;SDS011;13573;50.936;4.328;2022-08-18T05:15:53;67.93;;;44.83;;
25715;SDS011;13573;50.936;4.328;2022-08-18T05:18:23;234.80;;;59.10;;
25715;SDS011;13573;50.936;4.328;2022-08-18T05:20:50;260.90;;;57.97;;
25715;SDS011;13573;50.936;4.328;2022-08-18T05:23:19;206.30;;;60.90;;
25715;SDS011;13573;50.936;4.328;2022-08-18T05:25:46;203.63;;;62.47;;
25715;SDS011;13573;50.936;4.328;2022-08-18T05:28:13;138.03;;;53.77;;
25715;SDS011;13573;50.936;4.328;2022-08-18T05:30:40;144.67;;;52.97;;
25715;SDS011;13573;50.936;4.328;2022-08-18T05:33:08;119.67;;;51.43;;
25715;SDS011;13573;50.936;4.328;2022-08-18T05:35:40;87.53;;;49.87;;
25715;SDS011;13573;50.936;4.328;2022-08-18T05:38:14;233.43;;;52.80;;
25715;SDS011;13573;50.936;4.328;2022-08-18T05:40:45;77.70;;;44.43;;
25715;SDS011;13573;50.936;4.328;2022-08-18T05:43:17;62.17;;;42.73;;
25715;SDS011;13573;50.936;4.328;2022-08-18T05:45:44;117.40;;;51.90;;
25715;SDS011;13573;50.936;4.328;2022-08-18T05:48:14;70.70;;;44.53;;
25715;SDS011;13573;50.936;4.328;2022-08-18T05:50:41;64.20;;;43.73;;
25715;SDS011;13573;50.936;4.328;2022-08-18T05:53:08;143.37;;;51.87;;
25715;SDS011;13573;50.936;4.328;2022-08-18T05:55:43;92.53;;;49.10;;
25715;SDS011;13573;50.936;4.328;2022-08-18T05:58:19;102.43;;;49.00;;
25715;SDS011;13573;50.936;4.328;2022-08-18T06:00:51;89.47;;;50.80;;
25715;SDS011;13573;50.936;4.328;2022-08-18T06:03:23;103.03;;;51.80;;
25715;SDS011;13573;50.936;4.328;2022-08-18T06:05:54;57.13;;;36.30;;
25715;SDS011;13573;50.936;4.328;2022-08-18T06:08:28;70.77;;;43.57;;
25715;SDS011;13573;50.936;4.328;2022-08-18T06:10:56;61.43;;;35.63;;
25715;SDS011;13573;50.936;4.328;2022-08-18T06:13:22;57.27;;;37.07;;
25715;SDS011;13573;50.936;4.328;2022-08-18T06:15:55;60.60;;;37.13;;
25715;SDS011;13573;50.936;4.328;2022-08-18T06:22:27;54.57;;;33.57;;
25715;SDS011;13573;50.936;4.328;2022-08-18T06:24:45;258.13;;;43.43;;
25715;SDS011;13573;50.936;4.328;2022-08-18T06:29:54;113.07;;;33.03;;
25715;SDS011;13573;50.936;4.328;2022-08-18T06:32:53;97.17;;;31.10;;
25715;SDS011;13573;50.936;4.328;2022-08-18T06:35:31;68.77;;;28.67;;
25715;SDS011;13573;50.936;4.328;2022-08-18T06:38:09;61.57;;;24.40;;
25715;SDS011;13573;50.936;4.328;2022-08-18T06:40:47;60.20;;;23.90;;
25715;SDS011;13573;50.936;4.328;2022-08-18T06:43:15;47.73;;;27.30;;
25715;SDS011;13573;50.936;4.328;2022-08-18T06:45:43;43.03;;;34.10;;
25715;SDS011;13573;50.936;4.328;2022-08-18T06:48:17;31.57;;;24.40;;
25715;SDS011;13573;50.936;4.328;2022-08-18T06:50:49;31.90;;;24.17;;
25715;SDS011;13573;50.936;4.328;2022-08-18T06:53:17;36.53;;;29.93;;
25715;SDS011;13573;50.936;4.328;2022-08-18T06:55:45;36.95;;;24.15;;
25715;SDS011;13573;50.936;4.328;2022-08-18T07:00:58;39.25;;;32.13;;
25715;SDS011;13573;50.936;4.328;2022-08-18T07:11:35;35.13;;;27.75;;
25715;SDS011;13573;50.936;4.328;2022-08-18T07:16:39;31.42;;;26.27;;
25715;SDS011;13573;50.936;4.328;2022-08-18T07:19:06;28.00;;;23.50;;
25715;SDS011;13573;50.936;4.328;2022-08-18T07:21:40;24.55;;;19.27;;
25715;SDS011;13573;50.936;4.328;2022-08-18T07:24:09;23.90;;;19.80;;
25715;SDS011;13573;50.936;4.328;2022-08-18T07:29:17;26.25;;;19.48;;
25715;SDS011;13573;50.936;4.328;2022-08-18T07:31:46;24.07;;;17.10;;
25715;SDS011;13573;50.936;4.328;2022-08-18T07:34:25;28.02;;;18.65;;
25715;SDS011;13573;50.936;4.328;2022-08-18T07:37:01;23.77;;;18.52;;
25715;SDS011;13573;50.936;4.328;2022-08-18T07:39:36;24.02;;;17.05;;
25715;SDS011;13573;50.936;4.328;2022-08-18T07:42:08;28.35;;;22.15;;
25715;SDS011;13573;50.936;4.328;2022-08-18T07:44:57;24.15;;;20.08;;
25715;SDS011;13573;50.936;4.328;2022-08-18T07:47:37;22.45;;;16.42;;
25715;SDS011;13573;50.936;4.328;2022-08-18T07:50:09;15.80;;;12.80;;
25715;SDS011;13573;50.936;4.328;2022-08-18T07:52:37;18.55;;;15.05;;
25715;SDS011;13573;50.936;4.328;2022-08-18T07:55:10;15.58;;;12.78;;
25715;SDS011;13573;50.936;4.328;2022-08-18T07:57:51;22.40;;;16.60;;
25715;SDS011;13573;50.936;4.328;2022-08-18T08:00:24;21.45;;;13.28;;
25715;SDS011;13573;50.936;4.328;2022-08-18T08:03:06;17.32;;;14.03;;
25715;SDS011;13573;50.936;4.328;2022-08-18T08:05:55;18.02;;;12.40;;
25715;SDS011;13573;50.936;4.328;2022-08-18T08:08:42;20.23;;;11.80;;
25715;SDS011;13573;50.936;4.328;2022-08-18T08:11:15;13.38;;;7.53;;
25715;SDS011;13573;50.936;4.328;2022-08-18T08:16:40;8.70;;;6.25;;
25715;SDS011;13573;50.936;4.328;2022-08-18T08:20:21;11.43;;;8.40;;
25715;SDS011;13573;50.936;4.328;2022-08-18T08:22:03;9.50;;;8.50;;
25715;SDS011;13573;50.936;4.328;2022-08-18T08:24:50;8.78;;;6.85;;
25715;SDS011;13573;50.936;4.328;2022-08-18T08:27:26;9.63;;;6.62;;
25715;SDS011;13573;50.936;4.328;2022-08-18T08:30:13;11.45;;;7.17;;
25715;SDS011;13573;50.936;4.328;2022-08-18T08:32:49;12.05;;;6.22;;
25715;SDS011;13573;50.936;4.328;2022-08-18T08:35:20;22.73;;;7.70;;
25715;SDS011;13573;50.936;4.328;2022-08-18T08:38:06;11.65;;;8.55;;
25715;SDS011;13573;50.936;4.328;2022-08-18T08:40:42;12.53;;;8.58;;
25715;SDS011;13573;50.936;4.328;2022-08-18T08:43:10;18.02;;;9.20;;
25715;SDS011;13573;50.936;4.328;2022-08-18T08:45:44;11.70;;;7.40;;
25715;SDS011;13573;50.936;4.328;2022-08-18T08:48:14;9.68;;;8.68;;
25715;SDS011;13573;50.936;4.328;2022-08-18T08:50:45;9.78;;;6.67;;
25715;SDS011;13573;50.936;4.328;2022-08-18T08:53:22;9.75;;;6.80;;
25715;SDS011;13573;50.936;4.328;2022-08-18T08:56:01;11.22;;;8.75;;
25715;SDS011;13573;50.936;4.328;2022-08-18T08:58:33;10.15;;;7.55;;
25715;SDS011;13573;50.936;4.328;2022-08-18T09:01:06;8.75;;;6.00;;
25715;SDS011;13573;50.936;4.328;2022-08-18T09:03:43;6.80;;;5.35;;
25715;SDS011;13573;50.936;4.328;2022-08-18T09:06:20;8.75;;;5.95;;
25715;SDS011;13573;50.936;4.328;2022-08-18T09:11:47;6.78;;;5.45;;
25715;SDS011;13573;50.936;4.328;2022-08-18T09:14:19;9.35;;;6.10;;
25715;SDS011;13573;50.936;4.328;2022-08-18T09:16:48;13.78;;;7.50;;
25715;SDS011;13573;50.936;4.328;2022-08-18T09:24:43;7.95;;;6.28;;
25715;SDS011;13573;50.936;4.328;2022-08-18T09:29:55;7.92;;;5.28;;
25715;SDS011;13573;50.936;4.328;2022-08-18T09:32:30;10.38;;;6.85;;
25715;SDS011;13573;50.936;4.328;2022-08-18T09:35:13;9.70;;;5.65;;
25715;SDS011;13573;50.936;4.328;2022-08-18T09:37:51;5.92;;;5.05;;
25715;SDS011;13573;50.936;4.328;2022-08-18T09:40:25;7.25;;;5.55;;
25715;SDS011;13573;50.936;4.328;2022-08-18T09:43:06;7.80;;;6.17;;
25715;SDS011;13573;50.936;4.328;2022-08-18T09:45:40;9.75;;;8.18;;
25715;SDS011;13573;50.936;4.328;2022-08-18T09:50:52;13.22;;;8.43;;
25715;SDS011;13573;50.936;4.328;2022-08-18T09:53:53;10.50;;;8.23;;
25715;SDS011;13573;50.936;4.328;2022-08-18T10:05:25;9.33;;;8.33;;
25715;SDS011;13573;50.936;4.328;2022-08-18T10:07:56;9.05;;;7.17;;
25715;SDS011;13573;50.936;4.328;2022-08-18T10:10:29;7.03;;;6.35;;
25715;SDS011;13573;50.936;4.328;2022-08-18T10:13:21;6.53;;;5.45;;
25715;SDS011;13573;50.936;4.328;2022-08-18T10:16:03;6.17;;;5.42;;
25715;SDS011;13573;50.936;4.328;2022-08-18T10:19:13;7.47;;;6.08;;
25715;SDS011;13573;50.936;4.328;2022-08-18T10:24:34;9.80;;;8.13;;
25715;SDS011;13573;50.936;4.328;2022-08-18T10:27:05;11.25;;;8.83;;
25715;SDS011;13573;50.936;4.328;2022-08-18T10:29:42;11.95;;;10.75;;
25715;SDS011;13573;50.936;4.328;2022-08-18T10:34:50;11.50;;;10.35;;
25715;SDS011;13573;50.936;4.328;2022-08-18T10:37:26;13.83;;;12.15;;
25715;SDS011;13573;50.936;4.328;2022-08-18T10:39:56;16.07;;;12.45;;
25715;SDS011;13573;50.936;4.328;2022-08-18T10:42:31;11.05;;;9.78;;
25715;SDS011;13573;50.936;4.328;2022-08-18T10:45:08;12.43;;;11.12;;
25715;SDS011;13573;50.936;4.328;2022-08-18T10:47:38;10.45;;;9.35;;
25715;SDS011;13573;50.936;4.328;2022-08-18T10:50:08;13.50;;;9.08;;
25715;SDS011;13573;50.936;4.328;2022-08-18T10:52:50;10.50;;;8.95;;
25715;SDS011;13573;50.936;4.328;2022-08-18T10:55:57;13.78;;;12.40;;
25715;SDS011;13573;50.936;4.328;2022-08-18T10:58:09;11.10;;;9.88;;
25715;SDS011;13573;50.936;4.328;2022-08-18T11:00:49;14.63;;;13.13;;
25715;SDS011;13573;50.936;4.328;2022-08-18T11:03:47;16.12;;;12.30;;
25715;SDS011;13573;50.936;4.328;2022-08-18T11:06:38;14.85;;;13.30;;
25715;SDS011;13573;50.936;4.328;2022-08-18T11:09:07;17.92;;;15.95;;
25715;SDS011;13573;50.936;4.328;2022-08-18T11:11:38;17.45;;;15.65;;
25715;SDS011;13573;50.936;4.328;2022-08-18T11:14:21;16.12;;;14.47;;
25715;SDS011;13573;50.936;4.328;2022-08-18T11:16:53;17.98;;;16.12;;
25715;SDS011;13573;50.936;4.328;2022-08-18T11:19:37;16.27;;;14.73;;
25715;SDS011;13573;50.936;4.328;2022-08-18T11:22:19;23.07;;;17.30;;
25715;SDS011;13573;50.936;4.328;2022-08-18T11:24:42;15.40;;;13.90;;
25715;SDS011;13573;50.936;4.328;2022-08-18T11:27:16;16.07;;;14.47;;
25715;SDS011;13573;50.936;4.328;2022-08-18T11:29:46;15.45;;;11.35;;
25715;SDS011;13573;50.936;4.328;2022-08-18T11:32:16;11.85;;;9.48;;
25715;SDS011;13573;50.936;4.328;2022-08-18T11:34:46;19.35;;;11.43;;
25715;SDS011;13573;50.936;4.328;2022-08-18T11:37:21;15.25;;;10.13;;
25715;SDS011;13573;50.936;4.328;2022-08-18T11:39:47;14.18;;;11.43;;
25715;SDS011;13573;50.936;4.328;2022-08-18T11:42:16;13.35;;;10.60;;
25715;SDS011;13573;50.936;4.328;2022-08-18T11:44:44;16.27;;;10.13;;
25715;SDS011;13573;50.936;4.328;2022-08-18T11:47:15;17.27;;;11.53;;
25715;SDS011;13573;50.936;4.328;2022-08-18T11:49:47;13.25;;;11.85;;
25715;SDS011;13573;50.936;4.328;2022-08-18T11:52:22;14.13;;;11.95;;
25715;SDS011;13573;50.936;4.328;2022-08-18T11:54:57;14.87;;;13.30;;
25715;SDS011;13573;50.936;4.328;2022-08-18T11:57:27;16.20;;;14.60;;
25715;SDS011;13573;50.936;4.328;2022-08-18T11:59:56;14.90;;;13.40;;
25715;SDS011;13573;50.936;4.328;2022-08-18T12:02:24;15.90;;;14.38;;
25715;SDS011;13573;50.936;4.328;2022-08-18T12:04:53;14.65;;;13.15;;
25715;SDS011;13573;50.936;4.328;2022-08-18T12:07:29;14.98;;;13.48;;
25715;SDS011;13573;50.936;4.328;2022-08-18T12:12:47;17.20;;;15.53;;
25715;SDS011;13573;50.936;4.328;2022-08-18T12:15:23;15.45;;;13.88;;
25715;SDS011;13573;50.936;4.328;2022-08-18T12:17:50;14.45;;;13.00;;
25715;SDS011;13573;50.936;4.328;2022-08-18T12:20:18;15.03;;;13.40;;
25715;SDS011;13573;50.936;4.328;2022-08-18T12:22:47;14.30;;;12.80;;
25715;SDS011;13573;50.936;4.328;2022-08-18T12:25:16;15.70;;;14.00;;
25715;SDS011;13573;50.936;4.328;2022-08-18T12:27:44;14.15;;;12.65;;
25715;SDS011;13573;50.936;4.328;2022-08-18T12:30:10;15.90;;;13.70;;
25715;SDS011;13573;50.936;4.328;2022-08-18T12:32:37;15.98;;;14.25;;
25715;SDS011;13573;50.936;4.328;2022-08-18T12:35:05;17.65;;;13.55;;
25715;SDS011;13573;50.936;4.328;2022-08-18T12:37:33;17.05;;;13.95;;
25715;SDS011;13573;50.936;4.328;2022-08-18T12:40:02;17.73;;;15.93;;
25715;SDS011;13573;50.936;4.328;2022-08-18T12:42:31;22.87;;;17.32;;
25715;SDS011;13573;50.936;4.328;2022-08-18T12:44:57;16.73;;;15.03;;
25715;SDS011;13573;50.936;4.328;2022-08-18T12:47:24;15.30;;;13.70;;
25715;SDS011;13573;50.936;4.328;2022-08-18T12:49:52;21.05;;;18.85;;
25715;SDS011;13573;50.936;4.328;2022-08-18T12:52:18;19.92;;;17.98;;
25715;SDS011;13573;50.936;4.328;2022-08-18T12:54:46;22.90;;;20.57;;
25715;SDS011;13573;50.936;4.328;2022-08-18T12:57:19;16.90;;;15.18;;
25715;SDS011;13573;50.936;4.328;2022-08-18T12:59:47;19.90;;;17.45;;
25715;SDS011;13573;50.936;4.328;2022-08-18T13:02:14;19.10;;;17.10;;
25715;SDS011;13573;50.936;4.328;2022-08-18T13:04:41;17.02;;;15.38;;
25715;SDS011;13573;50.936;4.328;2022-08-18T13:07:10;16.07;;;13.78;;
25715;SDS011;13573;50.936;4.328;2022-08-18T13:09:37;16.17;;;12.68;;
25715;SDS011;13573;50.936;4.328;2022-08-18T13:12:05;11.80;;;10.38;;
25715;SDS011;13573;50.936;4.328;2022-08-18T13:14:34;14.63;;;13.13;;
25715;SDS011;13573;50.936;4.328;2022-08-18T13:17:01;13.98;;;11.20;;
25715;SDS011;13573;50.936;4.328;2022-08-18T13:19:28;14.78;;;10.55;;
25715;SDS011;13573;50.936;4.328;2022-08-18T13:21:55;9.50;;;8.60;;
25715;SDS011;13573;50.936;4.328;2022-08-18T13:24:22;12.68;;;8.80;;
25715;SDS011;13573;50.936;4.328;2022-08-18T13:26:49;12.18;;;10.98;;
25715;SDS011;13573;50.936;4.328;2022-08-18T13:29:15;11.03;;;10.00;;
25715;SDS011;13573;50.936;4.328;2022-08-18T13:31:42;12.53;;;11.22;;
25715;SDS011;13573;50.936;4.328;2022-08-18T13:34:11;13.18;;;11.88;;
25715;SDS011;13573;50.936;4.328;2022-08-18T13:36:38;12.53;;;11.33;;
25715;SDS011;13573;50.936;4.328;2022-08-18T13:39:12;10.70;;;9.50;;
25715;SDS011;13573;50.936;4.328;2022-08-18T13:41:41;12.70;;;10.03;;
25715;SDS011;13573;50.936;4.328;2022-08-18T13:44:09;11.55;;;9.10;;
25715;SDS011;13573;50.936;4.328;2022-08-18T13:46:39;12.13;;;10.98;;
25715;SDS011;13573;50.936;4.328;2022-08-18T13:49:14;12.45;;;9.78;;
25715;SDS011;13573;50.936;4.328;2022-08-18T13:51:42;10.90;;;9.78;;
25715;SDS011;13573;50.936;4.328;2022-08-18T13:54:15;11.35;;;8.98;;
25715;SDS011;13573;50.936;4.328;2022-08-18T13:56:43;12.88;;;8.45;;
25715;SDS011;13573;50.936;4.328;2022-08-18T13:59:10;10.38;;;9.28;;
25715;SDS011;13573;50.936;4.328;2022-08-18T14:01:37;13.28;;;9.53;;
25715;SDS011;13573;50.936;4.328;2022-08-18T14:04:05;9.83;;;8.30;;
25715;SDS011;13573;50.936;4.328;2022-08-18T14:06:32;10.13;;;9.10;;
25715;SDS011;13573;50.936;4.328;2022-08-18T14:08:59;9.83;;;8.73;;
25715;SDS011;13573;50.936;4.328;2022-08-18T14:11:26;11.20;;;8.93;;
25715;SDS011;13573;50.936;4.328;2022-08-18T14:13:55;10.53;;;9.48;;
25715;SDS011;13573;50.936;4.328;2022-08-18T14:16:23;10.60;;;9.60;;
25715;SDS011;13573;50.936;4.328;2022-08-18T14:18:50;8.90;;;7.75;;
25715;SDS011;13573;50.936;4.328;2022-08-18T14:21:23;9.05;;;8.15;;
25715;SDS011;13573;50.936;4.328;2022-08-18T14:23:55;24.02;;;11.00;;
25715;SDS011;13573;50.936;4.328;2022-08-18T14:26:28;12.20;;;8.68;;
25715;SDS011;13573;50.936;4.328;2022-08-18T14:29:00;14.65;;;8.28;;
25715;SDS011;13573;50.936;4.328;2022-08-18T14:31:28;9.75;;;7.92;;
25715;SDS011;13573;50.936;4.328;2022-08-18T14:33:56;16.48;;;10.85;;
25715;SDS011;13573;50.936;4.328;2022-08-18T14:36:23;12.55;;;9.55;;
25715;SDS011;13573;50.936;4.328;2022-08-18T14:38:49;11.95;;;10.45;;
25715;SDS011;13573;50.936;4.328;2022-08-18T14:41:16;11.80;;;10.28;;
25715;SDS011;13573;50.936;4.328;2022-08-18T14:43:44;13.68;;;11.57;;
25715;SDS011;13573;50.936;4.328;2022-08-18T14:46:11;14.58;;;11.95;;
25715;SDS011;13573;50.936;4.328;2022-08-18T14:48:38;10.45;;;9.45;;
25715;SDS011;13573;50.936;4.328;2022-08-18T14:51:06;16.35;;;10.40;;
25715;SDS011;13573;50.936;4.328;2022-08-18T14:53:34;12.00;;;10.85;;
25715;SDS011;13573;50.936;4.328;2022-08-18T14:56:02;12.80;;;11.45;;
25715;SDS011;13573;50.936;4.328;2022-08-18T14:58:30;13.75;;;12.35;;
25715;SDS011;13573;50.936;4.328;2022-08-18T15:00:59;13.08;;;11.80;;
25715;SDS011;13573;50.936;4.328;2022-08-18T15:03:28;14.63;;;13.13;;
25715;SDS011;13573;50.936;4.328;2022-08-18T15:05:56;15.15;;;13.35;;
25715;SDS011;13573;50.936;4.328;2022-08-18T15:08:25;14.68;;;12.95;;
25715;SDS011;13573;50.936;4.328;2022-08-18T15:10:52;15.08;;;13.68;;
25715;SDS011;13573;50.936;4.328;2022-08-18T15:13:19;12.90;;;11.60;;
25715;SDS011;13573;50.936;4.328;2022-08-18T15:15:46;12.90;;;11.08;;
25715;SDS011;13573;50.936;4.328;2022-08-18T15:18:13;12.68;;;11.15;;
25715;SDS011;13573;50.936;4.328;2022-08-18T15:20:39;14.73;;;12.35;;
25715;SDS011;13573;50.936;4.328;2022-08-18T15:23:12;16.25;;;11.75;;
25715;SDS011;13573;50.936;4.328;2022-08-18T15:25:45;12.82;;;11.22;;
25715;SDS011;13573;50.936;4.328;2022-08-18T15:28:18;11.25;;;10.18;;
25715;SDS011;13573;50.936;4.328;2022-08-18T15:30:47;13.13;;;11.83;;
25715;SDS011;13573;50.936;4.328;2022-08-18T15:33:16;11.73;;;10.15;;
25715;SDS011;13573;50.936;4.328;2022-08-18T15:35:45;12.78;;;9.65;;
25715;SDS011;13573;50.936;4.328;2022-08-18T15:38:15;10.88;;;9.78;;
25715;SDS011;13573;50.936;4.328;2022-08-18T15:40:47;12.98;;;10.23;;
25715;SDS011;13573;50.936;4.328;2022-08-18T15:43:24;11.60;;;10.48;;
25715;SDS011;13573;50.936;4.328;2022-08-18T15:45:52;13.90;;;12.47;;